sensor_id;sensor_type;location;lat;lon;timestamp;pressure;altitude;pressure_sealevel;temperature;humidity
30967;BME280;17649;51.836;8.330;2023-06-14T00:02:49;100917.19;;;17.95;nan
30967;BME280;17649;51.836;8.330;2023-06-14T00:05:49;100921.59;;;17.95;nan
30967;BME280;17649;51.836;8.330;2023-06-14T00:08:50;100925.66;;;17.87;nan
30967;BME280;17649;51.836;8.330;2023-06-14T00:11:51;100928.41;;;17.86;nan
30967;BME280;17649;51.836;8.330;2023-06-14T00:14:51;100928.88;;;17.80;nan
30967;BME280;17649;51.836;8.330;2023-06-14T00:17:51;100932.44;;;17.68;nan
30967;BME280;17649;51.836;8.330;2023-06-14T00:20:51;100933.19;;;17.58;nan
30967;BME280;17649;51.836;8.330;2023-06-14T00:23:52;100940.69;;;17.52;nan
30967;BME280;17649;51.836;8.330;2023-06-14T00:26:52;100945.59;;;17.45;nan
30967;BME280;17649;51.836;8.330;2023-06-14T00:29:52;100940.59;;;17.42;nan
30967;BME280;17649;51.836;8.330;2023-06-14T00:32:52;100941.88;;;17.37;nan
30967;BME280;17649;51.836;8.330;2023-06-14T00:35:52;100953.44;;;17.23;nan
30967;BME280;17649;51.836;8.330;2023-06-14T00:38:56;100956.78;;;17.14;nan
30967;BME280;17649;51.836;8.330;2023-06-14T00:41:56;100951.50;;;16.91;nan
30967;BME280;17649;51.836;8.330;2023-06-14T00:44:57;100954.47;;;16.87;nan
30967;BME280;17649;51.836;8.330;2023-06-14T00:47:57;100964.06;;;16.75;nan
30967;BME280;17649;51.836;8.330;2023-06-14T00:50:58;100963.97;;;16.77;nan
30967;BME280;17649;51.836;8.330;2023-06-14T00:54:02;100958.13;;;16.73;nan
30967;BME280;17649;51.836;8.330;2023-06-14T00:57:02;100958.66;;;16.65;nan
30967;BME280;17649;51.836;8.330;2023-06-14T01:00:02;100971.44;;;16.46;nan
30967;BME280;17649;51.836;8.330;2023-06-14T01:03:04;100965.13;;;16.37;nan
30967;BME280;17649;51.836;8.330;2023-06-14T01:06:15;100965.81;;;16.28;nan
30967;BME280;17649;51.836;8.330;2023-06-14T01:12:37;100970.72;;;16.09;nan
30967;BME280;17649;51.836;8.330;2023-06-14T01:15:39;100979.22;;;15.87;nan
30967;BME280;17649;51.836;8.330;2023-06-14T01:18:40;100980.28;;;15.85;nan
30967;BME280;17649;51.836;8.330;2023-06-14T01:21:41;100980.47;;;15.94;nan
30967;BME280;17649;51.836;8.330;2023-06-14T01:24:42;100980.78;;;15.90;nan
30967;BME280;17649;51.836;8.330;2023-06-14T01:27:44;100982.75;;;15.99;nan
30967;BME280;17649;51.836;8.330;2023-06-14T01:30:45;100976.25;;;16.04;nan
30967;BME280;17649;51.836;8.330;2023-06-14T01:33:48;100985.66;;;16.07;nan
30967;BME280;17649;51.836;8.330;2023-06-14T01:36:49;100981.91;;;15.98;nan
30967;BME280;17649;51.836;8.330;2023-06-14T01:39:50;100976.97;;;15.83;nan
30967;BME280;17649;51.836;8.330;2023-06-14T01:42:50;100985.06;;;15.91;nan
30967;BME280;17649;51.836;8.330;2023-06-14T01:45:51;100981.94;;;15.86;nan
30967;BME280;17649;51.836;8.330;2023-06-14T01:48:53;100981.00;;;15.87;nan
30967;BME280;17649;51.836;8.330;2023-06-14T01:51:53;100980.78;;;15.90;nan
30967;BME280;17649;51.836;8.330;2023-06-14T01:54:54;100981.94;;;15.86;nan
30967;BME280;17649;51.836;8.330;2023-06-14T01:57:54;100985.97;;;15.78;nan
30967;BME280;17649;51.836;8.330;2023-06-14T02:00:54;100989.81;;;15.73;nan
30967;BME280;17649;51.836;8.330;2023-06-14T02:03:58;100991.31;;;15.64;nan
30967;BME280;17649;51.836;8.330;2023-06-14T02:06:58;100993.28;;;15.61;nan
30967;BME280;17649;51.836;8.330;2023-06-14T02:09:58;100996.41;;;15.53;nan
30967;BME280;17649;51.836;8.330;2023-06-14T02:12:59;100997.34;;;15.52;nan
30967;BME280;17649;51.836;8.330;2023-06-14T02:15:59;100994.84;;;15.50;nan
30967;BME280;17649;51.836;8.330;2023-06-14T02:18:59;101000.38;;;15.46;nan
30967;BME280;17649;51.836;8.330;2023-06-14T02:22:00;100998.91;;;15.42;nan
30967;BME280;17649;51.836;8.330;2023-06-14T02:25:00;101000.06;;;15.38;nan
30967;BME280;17649;51.836;8.330;2023-06-14T02:28:00;100995.06;;;15.35;nan
30967;BME280;17649;51.836;8.330;2023-06-14T02:31:01;100998.31;;;15.38;nan
30967;BME280;17649;51.836;8.330;2023-06-14T02:34:01;100999.34;;;15.36;nan
30967;BME280;17649;51.836;8.330;2023-06-14T02:37:02;101001.22;;;15.34;nan
30967;BME280;17649;51.836;8.330;2023-06-14T02:40:05;101000.41;;;15.33;nan
30967;BME280;17649;51.836;8.330;2023-06-14T02:43:06;101004.47;;;15.37;nan
30967;BME280;17649;51.836;8.330;2023-06-14T02:46:06;101000.41;;;15.33;nan
30967;BME280;17649;51.836;8.330;2023-06-14T02:49:07;100997.25;;;15.28;nan
30967;BME280;17649;51.836;8.330;2023-06-14T02:52:07;101003.00;;;15.20;nan
30967;BME280;17649;51.836;8.330;2023-06-14T02:55:09;101006.75;;;15.16;nan
30967;BME280;17649;51.836;8.330;2023-06-14T02:58:09;101007.91;;;15.12;nan
30967;BME280;17649;51.836;8.330;2023-06-14T03:01:10;101003.94;;;15.07;nan
30967;BME280;17649;51.836;8.330;2023-06-14T03:04:12;101014.59;;;15.04;nan
30967;BME280;17649;51.836;8.330;2023-06-14T03:07:13;101010.81;;;14.95;nan
30967;BME280;17649;51.836;8.330;2023-06-14T03:10:14;101011.31;;;15.00;nan
30967;BME280;17649;51.836;8.330;2023-06-14T03:13:14;101025.09;;;15.02;nan
30967;BME280;17649;51.836;8.330;2023-06-14T03:16:21;101016.53;;;15.00;nan
30967;BME280;17649;51.836;8.330;2023-06-14T03:19:22;101021.34;;;15.06;nan
30967;BME280;17649;51.836;8.330;2023-06-14T03:22:22;101020.72;;;15.15;nan
30967;BME280;17649;51.836;8.330;2023-06-14T03:25:25;101025.41;;;15.10;nan
30967;BME280;17649;51.836;8.330;2023-06-14T03:28:29;101033.75;;;15.15;nan
30967;BME280;17649;51.836;8.330;2023-06-14T03:31:29;101036.47;;;15.14;nan
30967;BME280;17649;51.836;8.330;2023-06-14T03:34:32;101035.00;;;15.10;nan
30967;BME280;17649;51.836;8.330;2023-06-14T03:37:32;101042.84;;;15.23;nan
30967;BME280;17649;51.836;8.330;2023-06-14T03:40:32;101046.16;;;15.25;nan
30967;BME280;17649;51.836;8.330;2023-06-14T03:43:33;101050.66;;;15.35;nan
30967;BME280;17649;51.836;8.330;2023-06-14T03:46:34;101045.44;;;15.35;nan
30967;BME280;17649;51.836;8.330;2023-06-14T03:49:34;101055.88;;;15.35;nan
30967;BME280;17649;51.836;8.330;2023-06-14T03:52:35;101058.59;;;15.34;nan
30967;BME280;17649;51.836;8.330;2023-06-14T03:55:35;101060.56;;;15.30;nan
30967;BME280;17649;51.836;8.330;2023-06-14T03:58:35;101064.66;;;15.34;nan
30967;BME280;17649;51.836;8.330;2023-06-14T04:01:36;101064.66;;;15.34;nan
30967;BME280;17649;51.836;8.330;2023-06-14T04:04:37;101062.13;;;15.45;nan
30967;BME280;17649;51.836;8.330;2023-06-14T04:07:37;101072.97;;;15.52;nan
30967;BME280;17649;51.836;8.330;2023-06-14T04:10:40;101070.78;;;15.59;nan
30967;BME280;17649;51.836;8.330;2023-06-14T04:13:40;101071.75;;;15.70;nan
30967;BME280;17649;51.836;8.330;2023-06-14T04:16:40;101068.59;;;15.78;nan
30967;BME280;17649;51.836;8.330;2023-06-14T04:19:40;101074.84;;;15.88;nan
30967;BME280;17649;51.836;8.330;2023-06-14T04:22:41;101084.63;;;15.97;nan
30967;BME280;17649;51.836;8.330;2023-06-14T04:25:43;101091.91;;;16.05;nan
30967;BME280;17649;51.836;8.330;2023-06-14T04:28:44;101092.22;;;16.13;nan
30967;BME280;17649;51.836;8.330;2023-06-14T04:31:45;101096.69;;;16.24;nan
30967;BME280;17649;51.836;8.330;2023-06-14T04:34:46;101104.19;;;16.28;nan
30967;BME280;17649;51.836;8.330;2023-06-14T04:37:47;101100.09;;;16.37;nan
30967;BME280;17649;51.836;8.330;2023-06-14T04:40:47;101104.53;;;16.48;nan
30967;BME280;17649;51.836;8.330;2023-06-14T04:43:48;101107.94;;;16.61;nan
30967;BME280;17649;51.836;8.330;2023-06-14T04:46:49;101103.19;;;16.66;nan
30967;BME280;17649;51.836;8.330;2023-06-14T04:49:49;101110.06;;;16.80;nan
30967;BME280;17649;51.836;8.330;2023-06-14T04:52:50;101115.56;;;16.88;nan
30967;BME280;17649;51.836;8.330;2023-06-14T04:55:51;101108.25;;;17.04;nan
30967;BME280;17649;51.836;8.330;2023-06-14T04:58:52;101102.94;;;17.17;nan
30967;BME280;17649;51.836;8.330;2023-06-14T05:01:53;101110.47;;;17.33;nan
30967;BME280;17649;51.836;8.330;2023-06-14T05:04:54;101102.97;;;17.39;nan
30967;BME280;17649;51.836;8.330;2023-06-14T05:07:56;101105.03;;;17.47;nan
30967;BME280;17649;51.836;8.330;2023-06-14T05:10:57;101108.84;;;17.54;nan
30967;BME280;17649;51.836;8.330;2023-06-14T05:13:57;101097.78;;;17.62;nan
30967;BME280;17649;51.836;8.330;2023-06-14T05:16:58;101101.97;;;17.64;nan
30967;BME280;17649;51.836;8.330;2023-06-14T05:19:59;101112.72;;;17.72;nan
30967;BME280;17649;51.836;8.330;2023-06-14T05:22:59;101105.78;;;17.82;nan
30967;BME280;17649;51.836;8.330;2023-06-14T05:26:00;101107.13;;;17.88;nan
30967;BME280;17649;51.836;8.330;2023-06-14T05:29:02;101111.28;;;18.02;nan
30967;BME280;17649;51.836;8.330;2023-06-14T05:32:03;101118.13;;;18.14;nan
30967;BME280;17649;51.836;8.330;2023-06-14T05:35:04;101121.97;;;18.21;nan
30967;BME280;17649;51.836;8.330;2023-06-14T05:38:04;101122.66;;;18.34;nan
30967;BME280;17649;51.836;8.330;2023-06-14T05:41:05;101121.69;;;18.46;nan
30967;BME280;17649;51.836;8.330;2023-06-14T05:44:05;101120.91;;;18.56;nan
30967;BME280;17649;51.836;8.330;2023-06-14T05:47:07;101120.94;;;18.67;nan
30967;BME280;17649;51.836;8.330;2023-06-14T05:50:07;101127.69;;;18.69;nan
30967;BME280;17649;51.836;8.330;2023-06-14T05:53:08;101125.44;;;18.76;nan
30967;BME280;17649;51.836;8.330;2023-06-14T05:56:08;101131.13;;;18.81;nan
30967;BME280;17649;51.836;8.330;2023-06-14T05:59:08;101137.41;;;18.90;nan
30967;BME280;17649;51.836;8.330;2023-06-14T06:02:08;101141.72;;;18.91;nan
30967;BME280;17649;51.836;8.330;2023-06-14T06:05:12;101143.41;;;19.01;nan
30967;BME280;17649;51.836;8.330;2023-06-14T06:08:12;101143.94;;;18.95;nan
30967;BME280;17649;51.836;8.330;2023-06-14T06:11:13;101134.53;;;18.93;nan
30967;BME280;17649;51.836;8.330;2023-06-14T06:14:13;101144.78;;;18.96;nan
30967;BME280;17649;51.836;8.330;2023-06-14T06:17:14;101145.91;;;19.03;nan
30967;BME280;17649;51.836;8.330;2023-06-14T06:20:14;101143.78;;;19.08;nan
30967;BME280;17649;51.836;8.330;2023-06-14T06:23:14;101134.69;;;19.12;nan
30967;BME280;17649;51.836;8.330;2023-06-14T06:26:15;101140.75;;;19.13;nan
30967;BME280;17649;51.836;8.330;2023-06-14T06:29:15;101146.13;;;19.11;nan
30967;BME280;17649;51.836;8.330;2023-06-14T06:32:15;101145.44;;;19.09;nan
30967;BME280;17649;51.836;8.330;2023-06-14T06:35:16;101145.63;;;19.17;nan
30967;BME280;17649;51.836;8.330;2023-06-14T06:38:16;101146.41;;;19.29;nan
30967;BME280;17649;51.836;8.330;2023-06-14T06:41:18;101148.13;;;19.40;nan
30967;BME280;17649;51.836;8.330;2023-06-14T06:44:19;101150.06;;;19.38;nan
30967;BME280;17649;51.836;8.330;2023-06-14T06:47:19;101156.97;;;19.39;nan
30967;BME280;17649;51.836;8.330;2023-06-14T06:50:19;101155.75;;;19.43;nan
30967;BME280;17649;51.836;8.330;2023-06-14T06:53:20;101159.63;;;19.48;nan
30967;BME280;17649;51.836;8.330;2023-06-14T06:56:20;101159.72;;;19.58;nan
30967;BME280;17649;51.836;8.330;2023-06-14T06:59:23;101160.63;;;19.68;nan
30967;BME280;17649;51.836;8.330;2023-06-14T07:02:23;101147.94;;;19.73;nan
30967;BME280;17649;51.836;8.330;2023-06-14T07:05:23;101161.06;;;19.73;nan
30967;BME280;17649;51.836;8.330;2023-06-14T07:08:24;101157.72;;;19.71;nan
30967;BME280;17649;51.836;8.330;2023-06-14T07:11:24;101163.75;;;19.83;nan
30967;BME280;17649;51.836;8.330;2023-06-14T07:14:24;101166.22;;;19.84;nan
30967;BME280;17649;51.836;8.330;2023-06-14T07:17:24;101169.13;;;19.81;nan
30967;BME280;17649;51.836;8.330;2023-06-14T07:20:25;101167.94;;;19.95;nan
30967;BME280;17649;51.836;8.330;2023-06-14T07:23:25;101172.72;;;19.80;nan
30967;BME280;17649;51.836;8.330;2023-06-14T07:26:25;101168.91;;;19.94;nan
30967;BME280;17649;51.836;8.330;2023-06-14T07:29:26;101174.19;;;20.04;nan
30967;BME280;17649;51.836;8.330;2023-06-14T07:32:27;101169.63;;;20.06;nan
30967;BME280;17649;51.836;8.330;2023-06-14T07:35:27;101174.78;;;20.17;nan
30967;BME280;17649;51.836;8.330;2023-06-14T07:38:27;101184.47;;;20.16;nan
30967;BME280;17649;51.836;8.330;2023-06-14T07:41:27;101174.84;;;20.27;nan
30967;BME280;17649;51.836;8.330;2023-06-14T07:44:29;101171.81;;;20.31;nan
30967;BME280;17649;51.836;8.330;2023-06-14T07:47:30;101167.38;;;20.32;nan
30967;BME280;17649;51.836;8.330;2023-06-14T07:50:30;101174.56;;;20.30;nan
30967;BME280;17649;51.836;8.330;2023-06-14T07:53:30;101174.59;;;20.39;nan
30967;BME280;17649;51.836;8.330;2023-06-14T07:56:30;101177.41;;;20.47;nan
30967;BME280;17649;51.836;8.330;2023-06-14T07:59:30;101182.16;;;20.53;nan
30967;BME280;17649;51.836;8.330;2023-06-14T08:02:31;101177.31;;;20.59;nan
30967;BME280;17649;51.836;8.330;2023-06-14T08:05:31;101177.44;;;20.57;nan
30967;BME280;17649;51.836;8.330;2023-06-14T08:08:31;101179.81;;;20.70;nan
30967;BME280;17649;51.836;8.330;2023-06-14T08:11:31;101180.44;;;20.52;nan
30967;BME280;17649;51.836;8.330;2023-06-14T08:14:32;101183.13;;;20.72;nan
30967;BME280;17649;51.836;8.330;2023-06-14T08:17:32;101178.84;;;20.80;nan
30967;BME280;17649;51.836;8.330;2023-06-14T08:20:32;101183.28;;;20.80;nan
30967;BME280;17649;51.836;8.330;2023-06-14T08:23:33;101183.41;;;20.78;nan
30967;BME280;17649;51.836;8.330;2023-06-14T08:26:33;101190.88;;;20.73;nan
30967;BME280;17649;51.836;8.330;2023-06-14T08:29:33;101188.53;;;20.70;nan
30967;BME280;17649;51.836;8.330;2023-06-14T08:32:33;101185.06;;;20.79;nan
30967;BME280;17649;51.836;8.330;2023-06-14T08:35:33;101192.69;;;20.92;nan
30967;BME280;17649;51.836;8.330;2023-06-14T08:38:37;101186.19;;;20.96;nan
30967;BME280;17649;51.836;8.330;2023-06-14T08:41:37;101189.25;;;21.01;nan
30967;BME280;17649;51.836;8.330;2023-06-14T08:44:37;101188.84;;;21.16;nan
30967;BME280;17649;51.836;8.330;2023-06-14T08:47:38;101188.28;;;21.22;nan
30967;BME280;17649;51.836;8.330;2023-06-14T08:50:38;101194.69;;;21.29;nan
30967;BME280;17649;51.836;8.330;2023-06-14T08:53:42;101193.28;;;21.34;nan
30967;BME280;17649;51.836;8.330;2023-06-14T08:56:43;101187.19;;;21.43;nan
30967;BME280;17649;51.836;8.330;2023-06-14T08:59:47;101191.06;;;21.49;nan
30967;BME280;17649;51.836;8.330;2023-06-14T09:02:52;101187.97;;;21.63;nan
30967;BME280;17649;51.836;8.330;2023-06-14T09:05:57;101195.88;;;21.63;nan
30967;BME280;17649;51.836;8.330;2023-06-14T09:08:58;101198.59;;;21.71;nan
30967;BME280;17649;51.836;8.330;2023-06-14T09:11:59;101188.72;;;21.46;nan
30967;BME280;17649;51.836;8.330;2023-06-14T09:14:59;101191.06;;;21.49;nan
30967;BME280;17649;51.836;8.330;2023-06-14T09:18:03;101188.88;;;21.82;nan
30967;BME280;17649;51.836;8.330;2023-06-14T09:21:05;101201.31;;;21.99;nan
30967;BME280;17649;51.836;8.330;2023-06-14T09:24:05;101197.16;;;22.06;nan
30967;BME280;17649;51.836;8.330;2023-06-14T09:27:06;101200.53;;;22.26;nan
30967;BME280;17649;51.836;8.330;2023-06-14T09:30:08;101197.44;;;22.30;nan
30967;BME280;17649;51.836;8.330;2023-06-14T09:33:09;101203.81;;;22.38;nan
30967;BME280;17649;51.836;8.330;2023-06-14T09:36:10;101206.94;;;22.51;nan
30967;BME280;17649;51.836;8.330;2023-06-14T09:39:10;101204.38;;;22.59;nan
30967;BME280;17649;51.836;8.330;2023-06-14T09:42:17;101200.50;;;22.81;nan
30967;BME280;17649;51.836;8.330;2023-06-14T09:45:20;101204.47;;;22.95;nan
30967;BME280;17649;51.836;8.330;2023-06-14T09:48:21;101194.28;;;23.00;nan
30967;BME280;17649;51.836;8.330;2023-06-14T09:51:22;101199.94;;;23.23;nan
30967;BME280;17649;51.836;8.330;2023-06-14T09:54:22;101206.84;;;23.59;nan
30967;BME280;17649;51.836;8.330;2023-06-14T09:57:25;101210.16;;;23.43;nan
30967;BME280;17649;51.836;8.330;2023-06-14T10:00:26;101200.88;;;23.39;nan
30967;BME280;17649;51.836;8.330;2023-06-14T10:03:30;101204.00;;;23.17;nan
30967;BME280;17649;51.836;8.330;2023-06-14T10:06:31;101201.34;;;23.17;nan
30967;BME280;17649;51.836;8.330;2023-06-14T10:09:32;101193.41;;;23.35;nan
30967;BME280;17649;51.836;8.330;2023-06-14T10:12:33;101186.72;;;23.05;nan
30967;BME280;17649;51.836;8.330;2023-06-14T10:15:48;101197.69;;;23.10;nan
30967;BME280;17649;51.836;8.330;2023-06-14T10:22:10;101205.13;;;23.76;nan
30967;BME280;17649;51.836;8.330;2023-06-14T10:25:13;101191.91;;;23.76;nan
30967;BME280;17649;51.836;8.330;2023-06-14T10:28:25;101195.88;;;23.80;nan
30967;BME280;17649;51.836;8.330;2023-06-14T10:31:48;101197.69;;;23.79;nan
30967;BME280;17649;51.836;8.330;2023-06-14T10:34:53;101199.69;;;23.77;nan
30967;BME280;17649;51.836;8.330;2023-06-14T10:37:54;101196.28;;;23.93;nan
30967;BME280;17649;51.836;8.330;2023-06-14T10:40:54;101200.69;;;24.11;nan
30967;BME280;17649;51.836;8.330;2023-06-14T10:44:30;101191.72;;;24.29;nan
30967;BME280;17649;51.836;8.330;2023-06-14T10:47:34;101196.84;;;24.31;nan
30967;BME280;17649;51.836;8.330;2023-06-14T10:50:35;101176.94;;;24.69;nan
30967;BME280;17649;51.836;8.330;2023-06-14T10:53:40;101181.91;;;24.80;nan
30967;BME280;17649;51.836;8.330;2023-06-14T10:56:46;101178.81;;;24.85;nan
30967;BME280;17649;51.836;8.330;2023-06-14T10:59:50;101168.81;;;24.62;nan
30967;BME280;17649;51.836;8.330;2023-06-14T11:05:52;101181.09;;;24.88;nan
30967;BME280;17649;51.836;8.330;2023-06-14T11:09:11;101180.13;;;25.54;nan
30967;BME280;17649;51.836;8.330;2023-06-14T11:12:20;101170.13;;;26.28;nan
30967;BME280;17649;51.836;8.330;2023-06-14T11:15:20;101176.66;;;26.79;nan
30967;BME280;17649;51.836;8.330;2023-06-14T11:18:21;101170.88;;;26.98;nan
30967;BME280;17649;51.836;8.330;2023-06-14T11:21:24;101164.59;;;26.45;nan
30967;BME280;17649;51.836;8.330;2023-06-14T11:24:25;101165.06;;;26.10;nan
30967;BME280;17649;51.836;8.330;2023-06-14T11:27:26;101167.47;;;26.67;nan
30967;BME280;17649;51.836;8.330;2023-06-14T11:30:27;101164.16;;;27.11;nan
30967;BME280;17649;51.836;8.330;2023-06-14T11:33:27;101162.19;;;26.59;nan
30967;BME280;17649;51.836;8.330;2023-06-14T11:36:28;101158.50;;;27.66;nan
30967;BME280;17649;51.836;8.330;2023-06-14T11:39:32;101149.19;;;30.32;nan
30967;BME280;17649;51.836;8.330;2023-06-14T11:42:32;101151.19;;;30.84;nan
30967;BME280;17649;51.836;8.330;2023-06-14T11:45:32;101150.19;;;32.47;nan
30967;BME280;17649;51.836;8.330;2023-06-14T11:48:36;101139.13;;;34.28;nan
30967;BME280;17649;51.836;8.330;2023-06-14T11:51:37;101133.63;;;35.94;nan
30967;BME280;17649;51.836;8.330;2023-06-14T11:54:39;101136.00;;;35.78;nan
30967;BME280;17649;51.836;8.330;2023-06-14T11:57:41;101139.13;;;35.00;nan
30967;BME280;17649;51.836;8.330;2023-06-14T12:00:41;101132.91;;;35.46;nan
30967;BME280;17649;51.836;8.330;2023-06-14T12:03:47;101133.72;;;36.27;nan
30967;BME280;17649;51.836;8.330;2023-06-14T12:06:48;101116.94;;;37.04;nan
30967;BME280;17649;51.836;8.330;2023-06-14T12:12:56;101135.75;;;33.85;nan
30967;BME280;17649;51.836;8.330;2023-06-14T12:15:57;101119.16;;;34.24;nan
30967;BME280;17649;51.836;8.330;2023-06-14T12:18:59;101118.91;;;34.44;nan
30967;BME280;17649;51.836;8.330;2023-06-14T12:22:00;101123.34;;;34.50;nan
30967;BME280;17649;51.836;8.330;2023-06-14T12:25:04;101110.25;;;36.11;nan
30967;BME280;17649;51.836;8.330;2023-06-14T12:28:06;101123.28;;;34.68;nan
30967;BME280;17649;51.836;8.330;2023-06-14T12:31:07;101118.28;;;34.84;nan
30967;BME280;17649;51.836;8.330;2023-06-14T12:34:07;101122.91;;;33.93;nan
30967;BME280;17649;51.836;8.330;2023-06-14T12:37:07;101126.41;;;33.32;nan
30967;BME280;17649;51.836;8.330;2023-06-14T12:40:07;101125.44;;;35.13;nan
30967;BME280;17649;51.836;8.330;2023-06-14T12:43:08;101124.25;;;35.44;nan
30967;BME280;17649;51.836;8.330;2023-06-14T12:46:08;101120.75;;;35.32;nan
30967;BME280;17649;51.836;8.330;2023-06-14T12:49:09;101123.94;;;33.56;nan
30967;BME280;17649;51.836;8.330;2023-06-14T12:52:10;101132.34;;;33.41;nan
30967;BME280;17649;51.836;8.330;2023-06-14T12:55:10;101122.88;;;32.63;nan
30967;BME280;17649;51.836;8.330;2023-06-14T12:58:11;101129.59;;;32.48;nan
30967;BME280;17649;51.836;8.330;2023-06-14T13:01:14;101131.47;;;32.02;nan
30967;BME280;17649;51.836;8.330;2023-06-14T13:04:14;101112.28;;;34.58;nan
30967;BME280;17649;51.836;8.330;2023-06-14T13:07:14;101120.22;;;38.10;nan
30967;BME280;17649;51.836;8.330;2023-06-14T13:10:15;101116.63;;;38.27;nan
30967;BME280;17649;51.836;8.330;2023-06-14T13:13:15;101113.91;;;37.17;nan
30967;BME280;17649;51.836;8.330;2023-06-14T13:16:15;101119.94;;;34.13;nan
30967;BME280;17649;51.836;8.330;2023-06-14T13:19:16;101127.44;;;33.13;nan
30967;BME280;17649;51.836;8.330;2023-06-14T13:22:16;101130.59;;;31.37;nan
30967;BME280;17649;51.836;8.330;2023-06-14T13:25:16;101129.06;;;31.68;nan
30967;BME280;17649;51.836;8.330;2023-06-14T13:28:17;101112.88;;;34.72;nan
30967;BME280;17649;51.836;8.330;2023-06-14T13:31:17;101119.50;;;37.11;nan
30967;BME280;17649;51.836;8.330;2023-06-14T13:34:17;101126.81;;;35.51;nan
30967;BME280;17649;51.836;8.330;2023-06-14T13:37:17;101125.78;;;33.73;nan
30967;BME280;17649;51.836;8.330;2023-06-14T13:40:18;101136.22;;;32.39;nan
30967;BME280;17649;51.836;8.330;2023-06-14T13:43:18;101129.47;;;32.92;nan
30967;BME280;17649;51.836;8.330;2023-06-14T13:46:18;101121.63;;;33.41;nan
30967;BME280;17649;51.836;8.330;2023-06-14T13:49:18;101122.13;;;32.12;nan
30967;BME280;17649;51.836;8.330;2023-06-14T13:52:19;101118.94;;;32.66;nan
30967;BME280;17649;51.836;8.330;2023-06-14T13:55:19;101118.81;;;34.32;nan
30967;BME280;17649;51.836;8.330;2023-06-14T13:58:19;101113.44;;;34.62;nan
30967;BME280;17649;51.836;8.330;2023-06-14T14:01:20;101120.84;;;35.49;nan
30967;BME280;17649;51.836;8.330;2023-06-14T14:04:21;101110.56;;;36.60;nan
30967;BME280;17649;51.836;8.330;2023-06-14T14:07:22;101107.50;;;34.72;nan
30967;BME280;17649;51.836;8.330;2023-06-14T14:10:22;101106.00;;;32.63;nan
30967;BME280;17649;51.836;8.330;2023-06-14T14:13:23;101118.09;;;30.65;nan
30967;BME280;17649;51.836;8.330;2023-06-14T14:16:24;101114.72;;;29.82;nan
30967;BME280;17649;51.836;8.330;2023-06-14T14:19:25;101113.19;;;29.32;nan
30967;BME280;17649;51.836;8.330;2023-06-14T14:22:26;101112.66;;;32.16;nan
30967;BME280;17649;51.836;8.330;2023-06-14T14:25:26;101100.59;;;34.76;nan
30967;BME280;17649;51.836;8.330;2023-06-14T14:28:26;101108.06;;;33.54;nan
30967;BME280;17649;51.836;8.330;2023-06-14T14:31:26;101115.41;;;31.96;nan
30967;BME280;17649;51.836;8.330;2023-06-14T14:34:27;101119.31;;;30.69;nan
30967;BME280;17649;51.836;8.330;2023-06-14T14:37:27;101124.63;;;29.54;nan
30967;BME280;17649;51.836;8.330;2023-06-14T14:40:27;101134.66;;;29.24;nan
30967;BME280;17649;51.836;8.330;2023-06-14T14:43:28;101125.97;;;29.15;nan
30967;BME280;17649;51.836;8.330;2023-06-14T14:46:31;101127.28;;;29.54;nan
30967;BME280;17649;51.836;8.330;2023-06-14T14:49:31;101121.47;;;31.85;nan
30967;BME280;17649;51.836;8.330;2023-06-14T14:52:32;101106.94;;;36.21;nan
30967;BME280;17649;51.836;8.330;2023-06-14T14:55:32;101100.41;;;38.59;nan
30967;BME280;17649;51.836;8.330;2023-06-14T14:58:34;101107.44;;;37.35;nan
30967;BME280;17649;51.836;8.330;2023-06-14T15:01:34;101115.81;;;33.80;nan
30967;BME280;17649;51.836;8.330;2023-06-14T15:04:35;101116.31;;;32.28;nan
30967;BME280;17649;51.836;8.330;2023-06-14T15:07:35;101123.03;;;31.28;nan
30967;BME280;17649;51.836;8.330;2023-06-14T15:10:35;101116.81;;;29.93;nan
30967;BME280;17649;51.836;8.330;2023-06-14T15:13:36;101114.44;;;29.71;nan
30967;BME280;17649;51.836;8.330;2023-06-14T15:16:36;101116.72;;;32.31;nan
30967;BME280;17649;51.836;8.330;2023-06-14T15:19:37;101108.47;;;34.36;nan
30967;BME280;17649;51.836;8.330;2023-06-14T15:22:37;101109.97;;;33.47;nan
30967;BME280;17649;51.836;8.330;2023-06-14T15:25:37;101106.03;;;35.87;nan
30967;BME280;17649;51.836;8.330;2023-06-14T15:28:38;101091.34;;;38.75;nan
30967;BME280;17649;51.836;8.330;2023-06-14T15:31:38;101095.84;;;41.52;nan
30967;BME280;17649;51.836;8.330;2023-06-14T15:34:38;101084.84;;;43.28;nan
30967;BME280;17649;51.836;8.330;2023-06-14T15:37:39;101089.03;;;44.00;nan
30967;BME280;17649;51.836;8.330;2023-06-14T15:40:42;101087.59;;;43.04;nan
30967;BME280;17649;51.836;8.330;2023-06-14T15:43:46;101090.63;;;43.45;nan
30967;BME280;17649;51.836;8.330;2023-06-14T15:46:46;101094.50;;;39.04;nan
30967;BME280;17649;51.836;8.330;2023-06-14T15:49:46;101103.09;;;35.36;nan
30967;BME280;17649;51.836;8.330;2023-06-14T15:52:47;101098.16;;;32.93;nan
30967;BME280;17649;51.836;8.330;2023-06-14T15:55:47;101086.97;;;34.89;nan
30967;BME280;17649;51.836;8.330;2023-06-14T15:58:47;101093.38;;;33.38;nan
30967;BME280;17649;51.836;8.330;2023-06-14T16:01:48;101104.41;;;33.67;nan
30967;BME280;17649;51.836;8.330;2023-06-14T16:04:48;101078.59;;;37.36;nan
30967;BME280;17649;51.836;8.330;2023-06-14T16:07:48;101075.59;;;38.35;nan
30967;BME280;17649;51.836;8.330;2023-06-14T16:10:48;101076.28;;;38.52;nan
30967;BME280;17649;51.836;8.330;2023-06-14T16:13:49;101074.91;;;40.42;nan
30967;BME280;17649;51.836;8.330;2023-06-14T16:16:49;101062.13;;;40.73;nan
30967;BME280;17649;51.836;8.330;2023-06-14T16:19:49;101067.50;;;42.13;nan
30967;BME280;17649;51.836;8.330;2023-06-14T16:22:50;101063.28;;;42.25;nan
30967;BME280;17649;51.836;8.330;2023-06-14T16:25:50;101064.59;;;42.33;nan